Time;durP1;ratioP1;P1;durP2;ratioP2;P2;SDS_P1;SDS_P2;PMS_P1;PMS_P2;Temp;Humidity;BMP_temperature;BMP_pressure;BME280_temperature;BME280_humidity;BME280_pressure;Samples;Min_cycle;Max_cycle;Signal;HPM_P1;HPM_P2
2023/04/15 00:00:38;;;;;;;20.17;4.32;;;7.90;99.90;;;;;;5086417;28;20126;-81
2023/04/15 00:03:05;;;;;;;11.50;4.35;;;7.90;99.90;;;;;;5071441;28;20043;-80
2023/04/15 00:05:32;;;;;;;12.57;4.43;;;7.90;99.90;;;;;;5083265;28;20134;-81
2023/04/15 00:07:58;;;;;;;9.70;5.30;;;7.90;99.90;;;;;;5089614;28;20043;-81
2023/04/15 00:10:25;;;;;;;11.02;4.20;;;7.90;99.90;;;;;;5056642;28;20104;-81
2023/04/15 00:12:51;;;;;;;5.72;3.05;;;7.80;99.90;;;;;;5072080;28;20058;-81
2023/04/15 00:15:17;;;;;;;11.52;5.18;;;7.80;99.90;;;;;;5066375;28;20051;-81
2023/04/15 00:17:42;;;;;;;8.63;3.63;;;7.80;99.90;;;;;;5089184;28;20032;-81
2023/04/15 00:20:09;;;;;;;9.90;4.70;;;7.80;99.90;;;;;;5069975;28;20293;-81
2023/04/15 00:22:35;;;;;;;10.23;4.25;;;7.80;99.90;;;;;;5069430;28;20381;-81
2023/04/15 00:25:01;;;;;;;8.68;3.90;;;7.70;99.90;;;;;;5069355;28;20044;-81
2023/04/15 00:27:27;;;;;;;10.18;4.63;;;7.70;99.90;;;;;;5090122;28;20512;-81
2023/04/15 00:29:52;;;;;;;10.00;4.60;;;7.70;99.90;;;;;;5059404;28;20501;-81
2023/04/15 00:32:19;;;;;;;13.32;5.97;;;7.70;99.90;;;;;;5070388;28;20044;-81
2023/04/15 00:34:45;;;;;;;10.40;4.82;;;7.70;99.90;;;;;;5088093;28;20221;-81
2023/04/15 00:37:11;;;;;;;9.63;4.88;;;7.80;99.90;;;;;;5051036;28;20820;-81
2023/04/15 00:39:37;;;;;;;9.25;4.80;;;7.60;99.90;;;;;;5069264;28;20052;-81
2023/04/15 00:42:09;;;;;;;8.15;5.25;;;7.60;99.90;;;;;;5073803;28;20140;-81
2023/04/15 00:44:35;;;;;;;11.10;4.95;;;7.60;99.90;;;;;;5090919;28;20055;-81
2023/04/15 00:47:03;;;;;;;13.75;5.25;;;7.50;99.90;;;;;;5069978;28;20497;-81
2023/04/15 00:49:31;;;;;;;9.02;4.88;;;7.50;99.90;;;;;;5090693;28;20401;-81
2023/04/15 00:51:56;;;;;;;10.38;5.00;;;7.50;99.90;;;;;;5084939;28;20444;-80
2023/04/15 00:54:22;;;;;;;11.85;5.45;;;7.50;99.90;;;;;;5067022;28;20048;-81
2023/04/15 00:56:48;;;;;;;11.23;5.80;;;7.50;99.90;;;;;;5088104;28;20071;-81
2023/04/15 00:59:14;;;;;;;11.55;5.90;;;7.40;99.90;;;;;;5061158;28;20516;-81
2023/04/15 01:01:40;;;;;;;12.23;5.85;;;7.40;99.90;;;;;;5089212;28;20583;-81
2023/04/15 01:04:07;;;;;;;9.07;5.18;;;7.40;99.90;;;;;;5070753;28;20048;-81
2023/04/15 01:06:32;;;;;;;11.30;6.35;;;7.30;99.90;;;;;;5066119;28;20589;-81
2023/04/15 01:09:00;;;;;;;13.65;5.55;;;7.30;99.90;;;;;;5084648;28;20042;-80
2023/04/15 01:11:26;;;;;;;12.07;5.47;;;7.30;99.90;;;;;;5070211;28;20042;-81
2023/04/15 01:13:55;;;;;;;13.00;5.90;;;7.30;99.90;;;;;;5085852;28;20048;-81
2023/04/15 01:16:21;;;;;;;10.50;5.57;;;7.20;99.90;;;;;;5086502;28;20040;-81
2023/04/15 01:18:47;;;;;;;8.55;4.63;;;7.20;99.90;;;;;;5063289;28;20516;-81
2023/04/15 01:21:13;;;;;;;10.25;5.28;;;7.20;99.90;;;;;;5064850;28;20072;-81
2023/04/15 01:23:38;;;;;;;9.85;5.40;;;7.20;99.90;;;;;;5083389;28;20480;-81
2023/04/15 01:26:07;;;;;;;10.43;5.07;;;7.20;99.90;;;;;;5052563;28;20055;-81
2023/04/15 01:28:33;;;;;;;12.10;6.35;;;7.20;99.90;;;;;;5050543;28;20198;-82
2023/04/15 01:31:10;;;;;;;12.55;5.90;;;7.20;99.90;;;;;;5063630;28;20132;-81
2023/04/15 01:33:36;;;;;;;11.50;5.15;;;7.10;99.90;;;;;;5071112;28;20051;-81
2023/04/15 01:36:03;;;;;;;8.43;4.50;;;7.20;99.90;;;;;;5085959;28;20502;-81
2023/04/15 01:38:29;;;;;;;11.90;5.88;;;7.20;99.90;;;;;;5063319;28;20865;-81
2023/04/15 01:40:55;;;;;;;12.65;6.30;;;7.10;99.90;;;;;;5063464;28;20062;-81
2023/04/15 01:43:21;;;;;;;10.00;5.82;;;7.10;99.90;;;;;;5066765;28;20040;-81
2023/04/15 01:45:46;;;;;;;12.38;6.88;;;7.10;99.90;;;;;;5071280;28;20046;-81
2023/04/15 01:48:12;;;;;;;11.00;5.90;;;7.10;99.90;;;;;;5066682;28;20479;-81
2023/04/15 01:50:37;;;;;;;15.27;7.43;;;7.10;99.90;;;;;;5075073;28;20036;-81
2023/04/15 01:53:03;;;;;;;13.98;6.03;;;7.10;99.90;;;;;;5064776;28;20044;-81
2023/04/15 01:55:29;;;;;;;11.02;5.93;;;7.10;99.90;;;;;;5068647;28;20047;-81
2023/04/15 01:57:55;;;;;;;15.05;6.78;;;7.00;99.90;;;;;;5066423;28;20649;-81
2023/04/15 02:00:21;;;;;;;8.93;5.68;;;7.00;99.90;;;;;;5067565;28;20040;-81
2023/04/15 02:02:48;;;;;;;10.15;6.43;;;7.00;99.90;;;;;;5083675;28;20576;-81
2023/04/15 02:05:14;;;;;;;9.55;5.50;;;6.90;99.90;;;;;;5086579;28;20043;-81
2023/04/15 02:07:43;;;;;;;11.63;7.10;;;7.00;99.90;;;;;;5085798;28;20044;-81
2023/04/15 02:10:11;;;;;;;9.88;5.97;;;6.90;99.90;;;;;;5067540;28;20043;-81
2023/04/15 02:12:37;;;;;;;9.57;5.45;;;6.90;99.90;;;;;;5090118;28;20043;-81
2023/04/15 02:15:04;;;;;;;11.77;6.07;;;6.90;99.90;;;;;;5089643;28;20032;-81
2023/04/15 02:17:33;;;;;;;11.18;7.07;;;6.80;99.90;;;;;;5070544;28;20502;-81
2023/04/15 02:19:59;;;;;;;14.73;7.07;;;6.80;99.90;;;;;;5087182;28;20032;-81
2023/04/15 02:22:25;;;;;;;11.13;5.97;;;6.80;99.90;;;;;;5071459;28;20129;-81
2023/04/15 02:24:51;;;;;;;11.48;6.40;;;6.80;99.90;;;;;;5091315;28;20051;-81
2023/04/15 02:27:17;;;;;;;12.45;6.20;;;7.00;99.90;;;;;;5073939;28;20040;-81
2023/04/15 02:29:44;;;;;;;11.15;6.78;;;6.70;99.90;;;;;;5074007;28;20121;-81
2023/04/15 02:32:11;;;;;;;14.57;7.35;;;7.30;99.90;;;;;;5073590;28;20054;-81
2023/04/15 02:34:40;;;;;;;11.00;6.53;;;6.70;99.90;;;;;;5074439;28;20046;-81
2023/04/15 02:37:06;;;;;;;16.42;7.65;;;6.60;99.90;;;;;;5065875;28;20161;-81
2023/04/15 02:39:32;;;;;;;11.68;6.30;;;6.60;99.90;;;;;;5088487;28;20119;-81
2023/04/15 02:41:59;;;;;;;14.00;7.97;;;6.60;99.90;;;;;;5084750;28;20115;-81
2023/04/15 02:44:26;;;;;;;15.02;6.90;;;6.60;99.90;;;;;;5093813;28;20044;-81
2023/04/15 02:46:53;;;;;;;12.60;7.03;;;6.50;99.90;;;;;;5066395;28;20056;-80
2023/04/15 02:49:19;;;;;;;16.40;8.50;;;6.50;99.90;;;;;;5066308;28;20051;-80
2023/04/15 02:51:48;;;;;;;13.63;6.95;;;6.50;99.90;;;;;;5090839;28;20035;-80
2023/04/15 02:54:15;;;;;;;12.43;7.50;;;6.60;99.90;;;;;;5079904;28;20568;-80
2023/04/15 02:56:41;;;;;;;15.82;8.40;;;6.40;99.90;;;;;;5066476;28;20050;-80
2023/04/15 02:59:07;;;;;;;13.00;7.93;;;6.40;99.90;;;;;;5051792;28;20044;-81
2023/04/15 03:01:32;;;;;;;16.77;9.13;;;6.50;99.90;;;;;;5086331;28;20040;-81
2023/04/15 03:03:58;;;;;;;15.38;8.65;;;6.30;99.90;;;;;;5074050;28;20075;-80
2023/04/15 03:06:23;;;;;;;12.63;7.75;;;6.30;99.90;;;;;;5084149;28;20036;-80
2023/04/15 03:08:50;;;;;;;14.70;8.40;;;6.20;99.90;;;;;;5068178;28;20043;-81
2023/04/15 03:11:15;;;;;;;11.40;6.38;;;6.20;99.90;;;;;;5087444;28;20047;-81
2023/04/15 03:13:42;;;;;;;13.50;8.35;;;6.20;99.90;;;;;;5071639;28;20039;-79
2023/04/15 03:16:08;;;;;;;13.75;7.32;;;6.10;99.90;;;;;;5069245;28;20046;-81
2023/04/15 03:18:33;;;;;;;15.48;8.73;;;6.20;99.90;;;;;;5071984;28;20114;-81
2023/04/15 03:20:59;;;;;;;13.40;8.07;;;6.10;99.90;;;;;;5053894;28;20047;-81
2023/04/15 03:23:25;;;;;;;18.25;10.18;;;6.10;99.90;;;;;;5073428;28;20071;-81
2023/04/15 03:25:50;;;;;;;16.65;9.38;;;6.10;99.90;;;;;;5084221;28;20091;-81
2023/04/15 03:28:16;;;;;;;15.40;9.82;;;6.10;99.90;;;;;;5084254;28;20581;-81
2023/04/15 03:30:42;;;;;;;16.27;9.68;;;6.00;99.90;;;;;;5086335;28;20044;-81
2023/04/15 03:33:07;;;;;;;17.55;9.55;;;6.00;99.90;;;;;;5086745;28;20152;-81
2023/04/15 03:35:33;;;;;;;20.52;11.02;;;6.00;99.90;;;;;;5086594;28;20040;-81
2023/04/15 03:37:59;;;;;;;17.90;10.48;;;5.90;99.90;;;;;;5070565;28;20112;-81
2023/04/15 03:40:25;;;;;;;13.43;7.75;;;5.90;99.90;;;;;;5072821;28;20036;-81
2023/04/15 03:42:51;;;;;;;17.17;10.02;;;5.90;99.90;;;;;;5084553;28;20115;-81
2023/04/15 03:45:17;;;;;;;16.45;8.57;;;5.90;99.90;;;;;;5086975;28;20081;-81
2023/04/15 03:47:42;;;;;;;16.38;8.80;;;5.90;99.90;;;;;;5089352;28;20036;-81
2023/04/15 03:50:08;;;;;;;16.85;9.70;;;5.90;99.90;;;;;;5065549;28;20048;-81
2023/04/15 03:52:34;;;;;;;19.65;9.93;;;5.90;99.90;;;;;;5069712;28;20036;-81
2023/04/15 03:55:00;;;;;;;13.13;8.13;;;5.80;99.90;;;;;;5084654;28;20051;-81
2023/04/15 03:57:26;;;;;;;18.33;10.18;;;5.80;99.90;;;;;;5083724;28;20119;-81
2023/04/15 03:59:51;;;;;;;19.40;11.73;;;5.80;99.90;;;;;;5089104;28;20356;-81
2023/04/15 04:02:17;;;;;;;21.67;12.93;;;5.80;99.90;;;;;;5088340;28;20482;-81
2023/04/15 04:04:43;;;;;;;20.13;11.43;;;5.80;99.90;;;;;;5065059;28;20048;-81
2023/04/15 04:07:14;;;;;;;17.00;11.07;;;5.80;99.90;;;;;;5069874;28;20513;-81
2023/04/15 04:09:40;;;;;;;20.27;12.02;;;5.80;99.90;;;;;;5098742;28;20846;-81
2023/04/15 04:12:06;;;;;;;19.30;10.77;;;5.80;99.90;;;;;;5073401;28;20125;-81
2023/04/15 04:14:32;;;;;;;22.50;12.55;;;5.70;99.90;;;;;;5089538;28;20143;-81
2023/04/15 04:16:58;;;;;;;16.10;9.32;;;5.70;99.90;;;;;;5066843;28;20530;-81
2023/04/15 04:19:23;;;;;;;17.52;10.25;;;5.70;99.90;;;;;;5086333;28;20506;-81
2023/04/15 04:21:49;;;;;;;17.27;10.93;;;5.70;99.90;;;;;;5068112;28;20040;-81
2023/04/15 04:24:15;;;;;;;17.40;9.88;;;5.70;99.90;;;;;;5086646;28;20271;-81
2023/04/15 04:26:40;;;;;;;16.40;10.43;;;5.70;99.90;;;;;;5067132;28;20066;-81
2023/04/15 04:29:06;;;;;;;16.60;10.18;;;5.60;99.90;;;;;;5074782;28;20568;-81
2023/04/15 04:31:32;;;;;;;19.73;12.00;;;5.60;99.90;;;;;;5066533;28;20111;-80
2023/04/15 04:33:58;;;;;;;17.92;10.18;;;5.60;99.90;;;;;;5086161;28;20050;-81
2023/04/15 04:36:23;;;;;;;19.05;11.73;;;5.60;99.90;;;;;;5064708;28;20442;-81
2023/04/15 04:38:49;;;;;;;19.13;11.07;;;5.60;99.90;;;;;;5064253;28;20094;-81
2023/04/15 04:41:14;;;;;;;19.58;10.98;;;5.60;99.90;;;;;;5069924;28;20051;-81
2023/04/15 04:43:40;;;;;;;21.98;12.68;;;5.60;99.90;;;;;;5064120;28;20036;-81
2023/04/15 04:46:06;;;;;;;19.75;11.88;;;5.60;99.90;;;;;;5083388;28;20457;-81
2023/04/15 04:48:32;;;;;;;19.33;11.00;;;5.50;99.90;;;;;;5068835;28;20047;-81
2023/04/15 04:50:58;;;;;;;19.08;10.60;;;5.60;99.90;;;;;;5084456;28;20035;-81
2023/04/15 04:53:23;;;;;;;20.23;10.52;;;5.50;99.90;;;;;;5075108;28;20550;-81
2023/04/15 04:55:49;;;;;;;19.65;12.00;;;5.60;99.90;;;;;;5081158;28;20063;-81
2023/04/15 04:58:15;;;;;;;18.35;10.68;;;5.60;99.90;;;;;;5083978;28;20151;-81
2023/04/15 05:00:41;;;;;;;20.88;12.38;;;5.60;99.90;;;;;;5077984;28;20039;-81
2023/04/15 05:03:06;;;;;;;22.23;12.80;;;5.60;99.90;;;;;;5069926;28;20447;-81
2023/04/15 05:05:32;;;;;;;22.08;12.85;;;5.60;99.90;;;;;;5082326;28;20039;-81
2023/04/15 05:07:57;;;;;;;17.42;10.45;;;5.60;99.90;;;;;;5063153;28;20249;-81
2023/04/15 05:10:23;;;;;;;19.42;10.82;;;5.60;99.90;;;;;;5083276;28;20035;-81
2023/04/15 05:12:50;;;;;;;19.20;11.43;;;5.60;99.90;;;;;;5083331;28;20127;-81
2023/04/15 05:15:16;;;;;;;18.83;10.80;;;5.60;99.90;;;;;;5086152;28;20039;-81
2023/04/15 05:17:42;;;;;;;20.02;11.95;;;5.60;99.90;;;;;;5089641;28;20036;-81
2023/04/15 05:20:08;;;;;;;17.35;10.52;;;5.60;99.90;;;;;;5087514;28;20398;-81
2023/04/15 05:22:34;;;;;;;19.45;11.93;;;5.60;99.90;;;;;;5056403;28;20036;-81
2023/04/15 05:24:59;;;;;;;19.80;12.18;;;5.70;99.90;;;;;;5072595;28;20525;-81
2023/04/15 05:27:25;;;;;;;20.92;11.68;;;5.60;99.90;;;;;;5083144;28;20383;-80
2023/04/15 05:29:51;;;;;;;22.38;12.43;;;5.70;99.90;;;;;;5065501;28;20059;-81
2023/04/15 05:32:16;;;;;;;18.95;11.07;;;5.70;99.90;;;;;;5083584;28;20117;-80
2023/04/15 05:34:42;;;;;;;20.13;10.93;;;5.70;99.90;;;;;;5079337;28;20803;-80
2023/04/15 05:37:09;;;;;;;16.95;9.93;;;5.70;99.90;;;;;;5081375;28;20067;-80
2023/04/15 05:39:35;;;;;;;16.50;9.73;;;5.70;99.90;;;;;;5069346;28;20125;-80
2023/04/15 05:42:01;;;;;;;18.08;10.73;;;5.80;99.90;;;;;;5049275;28;20619;-79
2023/04/15 05:44:26;;;;;;;22.15;12.27;;;5.80;99.90;;;;;;5084698;28;20431;-79
2023/04/15 05:46:52;;;;;;;19.60;12.10;;;5.80;99.90;;;;;;5071949;28;20394;-79
2023/04/15 05:49:18;;;;;;;20.75;11.10;;;5.90;99.90;;;;;;5089369;28;20215;-79
2023/04/15 05:51:43;;;;;;;16.70;10.32;;;5.90;99.90;;;;;;5047830;28;20052;-80
2023/04/15 05:54:09;;;;;;;20.38;12.35;;;6.00;99.90;;;;;;5084814;28;20052;-80
2023/04/15 05:56:37;;;;;;;18.02;10.32;;;6.00;99.90;;;;;;5064343;28;20032;-82
2023/04/15 05:59:03;;;;;;;18.90;10.93;;;6.00;99.90;;;;;;5071191;28;20079;-81
2023/04/15 06:01:29;;;;;;;19.55;12.68;;;6.00;99.90;;;;;;5087724;28;20123;-82
2023/04/15 06:03:55;;;;;;;21.70;12.68;;;6.10;99.90;;;;;;5064494;28;20082;-82
2023/04/15 06:06:21;;;;;;;19.13;11.45;;;6.10;99.90;;;;;;5085122;28;20093;-82
2023/04/15 06:08:47;;;;;;;20.00;11.93;;;6.10;99.90;;;;;;5067752;28;20044;-83
2023/04/15 06:11:12;;;;;;;18.38;10.75;;;6.20;99.90;;;;;;5081773;28;20035;-82
2023/04/15 06:13:38;;;;;;;16.55;10.40;;;6.20;99.90;;;;;;5071599;28;20056;-83
2023/04/15 06:16:04;;;;;;;19.90;12.55;;;6.30;99.90;;;;;;5068219;28;20036;-82
2023/04/15 06:18:30;;;;;;;19.83;12.00;;;6.30;99.90;;;;;;5079863;28;20134;-82
2023/04/15 06:20:56;;;;;;;17.17;11.43;;;6.30;99.90;;;;;;5067748;28;20108;-82
2023/04/15 06:23:22;;;;;;;16.67;10.32;;;6.40;99.90;;;;;;5064232;28;20086;-83
2023/04/15 06:25:48;;;;;;;17.33;10.55;;;6.40;99.90;;;;;;5080441;28;20051;-82
2023/04/15 06:28:14;;;;;;;18.08;10.88;;;6.50;99.90;;;;;;5099698;28;20043;-82
2023/04/15 06:30:40;;;;;;;18.48;11.02;;;6.50;99.90;;;;;;5064283;28;20840;-82
2023/04/15 06:33:06;;;;;;;21.13;12.65;;;6.60;99.90;;;;;;5087404;28;20075;-83
2023/04/15 06:35:32;;;;;;;20.08;11.80;;;6.70;99.90;;;;;;5084870;28;20154;-81
2023/04/15 06:37:57;;;;;;;20.17;12.73;;;6.70;99.90;;;;;;5070752;28;20055;-83
2023/04/15 06:40:23;;;;;;;20.75;13.23;;;6.80;99.90;;;;;;5086649;28;20130;-83
2023/04/15 06:42:49;;;;;;;19.30;10.50;;;6.90;99.90;;;;;;5087385;28;20123;-83
2023/04/15 06:45:17;;;;;;;16.05;9.55;;;6.90;99.90;;;;;;5087610;28;20182;-84
2023/04/15 06:47:43;;;;;;;22.00;11.50;;;7.00;99.90;;;;;;5072636;28;20132;-83
2023/04/15 06:50:10;;;;;;;18.95;10.85;;;7.00;99.90;;;;;;5064815;28;20150;-87
2023/04/15 06:52:36;;;;;;;19.83;10.88;;;7.80;99.90;;;;;;5046616;28;20187;-84
2023/04/15 06:55:02;;;;;;;18.75;10.40;;;7.20;99.90;;;;;;5068021;28;20519;-85
2023/04/15 06:57:28;;;;;;;20.17;10.20;;;7.20;99.90;;;;;;5092432;28;20032;-84
2023/04/15 06:59:54;;;;;;;16.80;10.00;;;7.20;99.90;;;;;;5065108;28;20043;-84
2023/04/15 07:02:20;;;;;;;16.48;9.63;;;7.30;99.90;;;;;;5072241;28;20129;-87
2023/04/15 07:04:46;;;;;;;16.98;9.68;;;7.30;99.90;;;;;;5065945;28;20539;-87
2023/04/15 07:07:16;;;;;;;18.13;9.63;;;7.40;99.90;;;;;;5068789;28;20609;-87
2023/04/15 07:09:45;;;;;;;16.13;9.50;;;7.40;99.90;;;;;;5074863;28;20073;-86
2023/04/15 07:12:11;;;;;;;17.20;9.07;;;7.40;99.90;;;;;;5073082;28;20040;-86
2023/04/15 07:14:37;;;;;;;12.70;7.53;;;7.50;99.90;;;;;;5087264;28;20603;-87
2023/04/15 07:17:03;;;;;;;12.55;7.85;;;8.10;99.90;;;;;;5064591;28;20183;-87
2023/04/15 07:19:29;;;;;;;14.55;9.40;;;7.60;99.90;;;;;;5063740;28;20125;-87
2023/04/15 07:22:01;;;;;;;12.82;7.50;;;7.60;99.90;;;;;;5051539;28;20055;-87
2023/04/15 07:24:30;;;;;;;14.68;8.55;;;7.60;99.90;;;;;;5086134;28;20036;-87
2023/04/15 07:26:57;;;;;;;14.70;8.30;;;7.70;99.90;;;;;;5072423;28;20394;-90
2023/04/15 07:29:23;;;;;;;14.90;8.88;;;8.40;99.90;;;;;;5076165;28;20117;-88
2023/04/15 07:31:50;;;;;;;16.55;9.45;;;7.80;99.90;;;;;;5072498;28;20181;-88
2023/04/15 07:34:16;;;;;;;13.63;8.38;;;7.90;99.90;;;;;;5074342;28;20048;-90
2023/04/15 07:36:42;;;;;;;13.27;8.15;;;7.90;99.90;;;;;;5071131;28;20040;-89
2023/04/15 07:39:10;;;;;;;14.32;7.30;;;9.00;99.90;;;;;;5066476;28;20514;-89
2023/04/15 07:41:36;;;;;;;15.93;8.60;;;8.20;99.90;;;;;;5055955;28;20043;-84
2023/04/15 07:44:02;;;;;;;16.90;9.10;;;8.00;99.90;;;;;;5085495;28;20076;-84
2023/04/15 07:46:28;;;;;;;15.13;8.38;;;8.10;99.90;;;;;;5058741;28;20277;-85
2023/04/15 07:48:54;;;;;;;17.85;8.20;;;8.10;99.90;;;;;;5086874;28;20392;-85
2023/04/15 07:51:20;;;;;;;13.38;7.93;;;8.10;99.90;;;;;;5064140;28;20397;-86
2023/04/15 07:53:47;;;;;;;14.32;7.38;;;8.20;99.90;;;;;;5080701;28;20063;-86
2023/04/15 07:56:13;;;;;;;14.05;6.82;;;8.20;99.90;;;;;;5067055;28;20040;-86
2023/04/15 07:58:39;;;;;;;11.50;7.00;;;8.30;99.90;;;;;;5063281;28;20435;-87
2023/04/15 08:01:05;;;;;;;12.20;6.55;;;8.30;99.90;;;;;;5046866;28;20127;-86
2023/04/15 08:03:31;;;;;;;13.38;7.15;;;8.30;99.90;;;;;;5067366;28;20409;-86
2023/04/15 08:05:57;;;;;;;9.88;5.95;;;8.30;99.90;;;;;;5054580;28;20043;-85
2023/04/15 08:08:24;;;;;;;10.77;6.32;;;8.30;99.90;;;;;;5080077;28;20046;-92
2023/04/15 08:10:50;;;;;;;10.90;6.15;;;8.40;99.90;;;;;;5075630;28;20048;-93
2023/04/15 08:13:30;;;;;;;9.30;5.28;;;8.40;99.90;;;;;;5138251;22;20120;31
2023/04/15 08:16:17;;;;;;;14.35;6.03;;;8.40;99.90;;;;;;4997025;28;20068;-91
2023/04/15 08:18:44;;;;;;;9.27;6.03;;;8.50;99.90;;;;;;4991827;28;20041;-93
2023/04/15 08:21:10;;;;;;;11.40;6.00;;;8.60;99.90;;;;;;5012749;28;20591;-91
2023/04/15 08:23:41;;;;;;;15.35;6.95;;;8.10;99.90;;;;;;5018812;28;20057;-94
2023/04/15 08:26:10;;;;;;;12.48;5.40;;;8.60;99.90;;;;;;4997393;28;20404;-91
2023/04/15 08:28:38;;;;;;;9.85;5.10;;;8.50;99.90;;;;;;5015777;28;20046;-90
2023/04/15 08:31:04;;;;;;;10.13;5.43;;;8.50;99.90;;;;;;4995360;28;20110;-86
2023/04/15 08:33:30;;;;;;;9.50;5.63;;;8.50;99.90;;;;;;4987171;28;20054;-87
2023/04/15 08:35:56;;;;;;;11.70;5.22;;;8.50;99.90;;;;;;4988839;28;20077;-85
2023/04/15 08:38:26;;;;;;;8.68;5.07;;;8.40;99.90;;;;;;4977378;28;20046;-84
2023/04/15 08:40:51;;;;;;;11.90;5.32;;;8.50;99.90;;;;;;4994310;28;20129;-83
2023/04/15 08:43:27;;;;;;;12.48;5.68;;;8.50;99.90;;;;;;4992829;28;20690;-84
2023/04/15 08:45:54;;;;;;;9.07;5.03;;;8.50;99.90;;;;;;4996234;28;20431;-84
2023/04/15 08:48:21;;;;;;;10.13;5.47;;;8.50;99.90;;;;;;4997208;28;20042;-84
2023/04/15 08:50:47;;;;;;;8.57;4.25;;;8.50;99.90;;;;;;4998589;28;20054;-85
2023/04/15 08:53:14;;;;;;;11.95;4.78;;;8.50;99.90;;;;;;4981262;28;20076;-84
2023/04/15 08:55:45;;;;;;;9.13;5.05;;;8.50;99.90;;;;;;5002274;28;20089;-84
2023/04/15 08:58:12;;;;;;;7.68;4.68;;;8.50;99.90;;;;;;5006817;28;20069;-85
2023/04/15 09:00:41;;;;;;;8.52;4.50;;;8.50;99.90;;;;;;4996208;28;20392;-84
2023/04/15 09:03:07;;;;;;;12.75;4.30;;;8.40;99.90;;;;;;4993472;28;20051;-84
2023/04/15 09:05:35;;;;;;;7.22;3.47;;;8.80;99.90;;;;;;4982243;28;20056;-85
2023/04/15 09:08:04;;;;;;;7.25;3.60;;;8.50;99.90;;;;;;4996790;28;20053;-84
2023/04/15 09:10:31;;;;;;;7.03;3.45;;;8.60;99.90;;;;;;4992889;28;20048;-85
2023/04/15 09:12:57;;;;;;;4.55;2.35;;;8.60;99.90;;;;;;4993511;28;20240;-84
2023/04/15 09:15:28;;;;;;;5.70;2.25;;;8.70;99.90;;;;;;4998193;28;20050;-84
2023/04/15 09:17:55;;;;;;;4.65;2.60;;;8.80;99.90;;;;;;5002046;28;20364;-86
2023/04/15 09:20:21;;;;;;;4.05;1.80;;;8.90;99.90;;;;;;5009520;28;20038;-88
2023/04/15 09:22:49;;;;;;;3.95;2.13;;;9.00;99.90;;;;;;4999285;28;20054;-86
2023/04/15 09:25:15;;;;;;;7.28;1.95;;;9.10;99.90;;;;;;5008008;28;20081;-86
2023/04/15 09:27:50;;;;;;;4.07;1.90;;;9.40;99.90;;;;;;4965725;28;20048;-87
2023/04/15 09:30:16;;;;;;;5.57;1.63;;;9.20;99.90;;;;;;4999395;28;20140;-92
2023/04/15 09:32:58;;;;;;;5.93;1.88;;;9.20;99.90;;;;;;5006462;28;20826;-85
2023/04/15 09:35:26;;;;;;;3.95;1.90;;;9.20;99.90;;;;;;5006368;28;20512;-88
2023/04/15 09:38:00;;;;;;;8.00;2.20;;;9.20;99.90;;;;;;5001989;28;20114;-88
2023/04/15 09:40:38;;;;;;;3.45;1.80;;;9.20;99.90;;;;;;5012946;28;20041;-87
2023/04/15 09:43:08;;;;;;;5.07;2.22;;;9.20;99.90;;;;;;4981145;28;20128;-83
2023/04/15 09:45:37;;;;;;;5.80;2.15;;;9.20;99.90;;;;;;4994233;28;20096;-83
2023/04/15 09:48:26;;;;;;;5.40;2.03;;;9.30;99.90;;;;;;4990666;28;20540;-84
2023/04/15 09:50:56;;;;;;;5.63;2.53;;;9.30;99.90;;;;;;5013121;28;20052;-83
2023/04/15 09:53:26;;;;;;;6.03;2.22;;;9.30;99.90;;;;;;4998525;28;20041;-83
2023/04/15 09:55:53;;;;;;;4.75;2.38;;;9.30;99.90;;;;;;4992565;28;20552;-83
2023/04/15 09:58:25;;;;;;;4.68;2.30;;;9.40;99.90;;;;;;4984171;28;20577;-83
2023/04/15 10:00:52;;;;;;;4.20;1.95;;;9.30;99.90;;;;;;4993292;28;20499;-83
2023/04/15 10:03:23;;;;;;;3.90;2.10;;;9.30;99.90;;;;;;4996563;28;20046;-84
2023/04/15 10:05:51;;;;;;;4.53;2.05;;;9.40;99.90;;;;;;4993845;28;20217;-82
2023/04/15 10:08:21;;;;;;;4.35;1.85;;;9.40;99.90;;;;;;4998558;28;20041;-83
2023/04/15 10:10:48;;;;;;;4.20;2.10;;;9.40;99.90;;;;;;4985260;28;20058;-82
2023/04/15 10:13:18;;;;;;;6.00;2.13;;;9.40;99.90;;;;;;5006955;28;20056;-82
2023/04/15 10:15:59;;;;;;;5.68;2.25;;;9.60;99.90;;;;;;4990782;28;20462;-83
2023/04/15 10:18:27;;;;;;;10.50;2.22;;;9.40;99.90;;;;;;4990317;28;20057;-82
2023/04/15 10:20:54;;;;;;;5.22;1.90;;;9.30;99.90;;;;;;4974721;28;20049;-82
2023/04/15 10:23:23;;;;;;;5.55;2.03;;;9.40;99.90;;;;;;4991538;28;20045;-82
2023/04/15 10:25:53;;;;;;;7.60;2.22;;;9.40;99.90;;;;;;4990462;28;20551;-80
2023/04/15 10:28:22;;;;;;;7.07;1.73;;;9.40;99.90;;;;;;4982389;28;20038;-81
2023/04/15 10:30:55;;;;;;;4.90;1.80;;;9.40;99.90;;;;;;5007754;28;20041;-85
2023/04/15 10:33:23;;;;;;;3.65;1.23;;;9.40;99.90;;;;;;4997296;28;20029;-81
2023/04/15 10:35:50;;;;;;;4.60;2.05;;;9.40;99.90;;;;;;4995865;28;20177;-81
2023/04/15 10:38:34;;;;;;;3.97;2.00;;;10.20;99.90;;;;;;4992059;28;20030;-81
2023/04/15 10:41:17;;;;;;;5.13;1.85;;;9.40;99.90;;;;;;4994754;28;20058;-81
2023/04/15 10:44:02;;;;;;;5.55;2.55;;;9.40;99.90;;;;;;4992124;28;20046;-81
2023/04/15 10:46:38;;;;;;;3.20;1.30;;;9.40;99.90;;;;;;4994517;28;20057;-81
2023/04/15 10:49:15;;;;;;;6.45;2.20;;;9.40;99.90;;;;;;4990907;28;20041;-80
2023/04/15 10:51:56;;;;;;;4.80;1.80;;;9.40;99.90;;;;;;4989970;28;20038;-80
2023/04/15 10:54:24;;;;;;;7.20;2.28;;;9.30;99.90;;;;;;4978849;28;20070;-81
2023/04/15 10:57:05;;;;;;;6.03;1.85;;;9.40;99.90;;;;;;4980517;28;20354;-81
2023/04/15 10:59:35;;;;;;;6.47;1.88;;;9.40;99.90;;;;;;4991330;28;20045;-81
2023/04/15 11:02:04;;;;;;;6.90;1.80;;;9.40;99.90;;;;;;4978530;28;20044;-81
2023/04/15 11:04:58;;;;;;;6.50;2.08;;;9.40;99.90;;;;;;4996123;28;20403;-81
2023/04/15 11:07:43;;;;;;;5.57;1.92;;;9.50;99.90;;;;;;4997215;28;20038;-81
2023/04/15 11:10:24;;;;;;;;;;;9.50;99.90;;;;;;4993556;28;20046;-79
2023/04/15 11:12:58;;;;;;;6.25;2.17;;;9.60;99.90;;;;;;4994148;28;19925;-80
2023/04/15 11:15:30;;;;;;;7.78;2.00;;;9.60;99.90;;;;;;4989944;28;20053;-81
2023/04/15 11:18:30;;;;;;;6.68;2.05;;;9.60;99.90;;;;;;4977684;28;20052;-82
2023/04/15 11:21:07;;;;;;;7.05;2.20;;;9.60;99.90;;;;;;5008875;28;20042;-81
2023/04/15 11:23:45;;;;;;;11.23;2.63;;;9.60;99.90;;;;;;4995787;28;20045;-81
2023/04/15 11:26:12;;;;;;;15.18;2.58;;;9.60;99.90;;;;;;4999172;28;20038;-80
2023/04/15 11:28:40;;;;;;;10.20;2.90;;;9.60;99.90;;;;;;4990995;28;20503;-82
2023/04/15 11:31:11;;;;;;;10.05;2.25;;;9.70;99.90;;;;;;4997185;28;20077;-81
2023/04/15 11:33:45;;;;;;;9.50;2.38;;;9.70;99.90;;;;;;4996590;28;20157;-81
2023/04/15 11:36:11;;;;;;;9.77;2.67;;;9.70;99.90;;;;;;4979768;28;20108;-86
2023/04/15 11:38:41;;;;;;;9.95;2.10;;;9.80;99.90;;;;;;4991957;28;20049;-86
2023/04/15 11:41:07;;;;;;;8.23;1.98;;;9.80;99.90;;;;;;5002598;28;20058;-86
2023/04/15 11:43:34;;;;;;;8.25;2.28;;;9.90;99.90;;;;;;4982480;28;20045;-86
2023/04/15 11:46:01;;;;;;;6.00;1.48;;;10.00;99.90;;;;;;4992230;28;20053;-86
2023/04/15 11:48:33;;;;;;;7.82;2.13;;;9.90;99.90;;;;;;4982740;28;20048;-86
2023/04/15 11:51:07;;;;;;;10.00;2.35;;;10.00;99.90;;;;;;4988605;28;20105;-86
2023/04/15 11:53:41;;;;;;;8.43;1.63;;;10.00;99.90;;;;;;4989853;28;20041;-87
2023/04/15 11:56:16;;;;;;;8.23;1.90;;;10.00;99.90;;;;;;4997271;28;20046;-86
2023/04/15 11:58:42;;;;;;;4.40;1.50;;;10.10;99.90;;;;;;4982387;28;20097;-86
2023/04/15 12:01:08;;;;;;;8.50;1.92;;;10.10;99.90;;;;;;4989834;28;20097;-85
2023/04/15 12:03:48;;;;;;;5.57;1.60;;;10.20;99.90;;;;;;4988696;28;20046;-86
2023/04/15 12:06:19;;;;;;;7.80;2.00;;;10.70;99.90;;;;;;4991043;28;20960;-85
2023/04/15 12:09:02;;;;;;;7.55;2.20;;;10.30;99.90;;;;;;4989903;28;20034;-87
2023/04/15 12:11:34;;;;;;;7.55;1.90;;;10.50;99.90;;;;;;4988442;28;20043;-84
2023/04/15 12:14:25;;;;;;;5.90;1.55;;;10.40;99.90;;;;;;4977308;28;20050;-82
2023/04/15 12:16:53;;;;;;;8.13;1.80;;;10.40;99.90;;;;;;4994092;28;20264;-82
2023/04/15 12:19:23;;;;;;;7.55;1.50;;;10.40;99.90;;;;;;4984092;28;20046;-82
2023/04/15 12:21:49;;;;;;;8.82;2.03;;;10.50;99.90;;;;;;4985561;28;20137;-82
2023/04/15 12:24:20;;;;;;;6.72;2.10;;;10.50;99.90;;;;;;4992321;28;20116;-82
2023/04/15 12:26:53;;;;;;;7.65;2.05;;;10.40;99.90;;;;;;4984821;28;20046;-82
2023/04/15 12:29:23;;;;;;;7.10;1.90;;;10.50;99.90;;;;;;4971522;28;20041;-81
2023/04/15 12:32:19;;;;;;;6.13;2.13;;;10.40;99.90;;;;;;4997715;28;20125;-82
2023/04/15 12:34:53;;;;;;;5.28;1.83;;;10.40;99.90;;;;;;5003666;28;20076;-81
2023/04/15 12:37:19;;;;;;;6.30;1.70;;;10.40;99.90;;;;;;4994193;28;20477;-81
2023/04/15 12:39:47;;;;;;;6.88;1.83;;;10.40;99.90;;;;;;4997362;28;20243;-81
2023/04/15 12:42:18;;;;;;;9.90;1.77;;;10.30;99.90;;;;;;4975976;28;20081;-81
2023/04/15 12:44:44;;;;;;;7.25;1.88;;;10.30;99.90;;;;;;5004662;28;20168;-81
2023/04/15 12:47:13;;;;;;;9.43;1.90;;;10.30;99.90;;;;;;5006729;28;20399;-81
2023/04/15 12:49:39;;;;;;;10.23;2.00;;;10.10;99.90;;;;;;5009861;28;20041;-80
2023/04/15 12:52:06;;;;;;;10.32;2.45;;;10.20;99.90;;;;;;5010136;28;20069;-82